| time (UTC) | temp C | wind direction | speed KPH | gust KPH | rain 1hr cm | rain 24hr cm | rain mn cm | humidity % | barometer mb |
| 20260510192800 | 21 | 254 | 11.3 | 12.9 | 0.00 | 0.00 | 0.00 | 50 | 1020.9 |
| 20260510192255 | 21 | 225 | 4.8 | 4.8 | 0.00 | 0.00 | 0.00 | 48 | 1021.2 |
| 20260510191752 | 21 | 239 | 16.1 | 17.7 | 0.00 | 0.00 | 0.00 | 52 | 1021.3 |
| 20260510191248 | 21 | 252 | 19.3 | 20.9 | 0.00 | 0.00 | 0.00 | 48 | 1021.2 |
| 20260510190746 | 21 | 230 | 9.7 | 9.7 | 0.00 | 0.00 | 0.00 | 49 | 1021.1 |
| 20260510190242 | 21 | 205 | 8.0 | 9.7 | 0.00 | 0.00 | 0.00 | 51 | 1021.1 |
| 20260510185739 | 21 | 252 | 14.5 | 16.1 | 0.00 | 0.00 | 0.00 | 51 | 1020.9 |
| 20260510185237 | 20 | 231 | 14.5 | 16.1 | 0.00 | 0.00 | 0.00 | 49 | 1021.2 |
| 20260510184733 | 20 | 224 | 17.7 | 17.7 | 0.00 | 0.00 | 0.00 | 51 | 1020.9 |
| 20260510184230 | 20 | 254 | 12.9 | 14.5 | 0.00 | 0.00 | 0.00 | 53 | 1021.1 |
| 20260510183726 | 21 | 240 | 12.9 | 16.1 | 0.00 | 0.00 | 0.00 | 51 | 1021.1 |
| 20260510183221 | 20 | 248 | 11.3 | 14.5 | 0.00 | 0.00 | 0.00 | 51 | 1020.9 |
| 20260510182717 | 20 | 216 | 11.3 | 12.9 | 0.00 | 0.00 | 0.00 | 52 | 1020.9 |
| 20260510182213 | 20 | 238 | 17.7 | 20.9 | 0.00 | 0.00 | 0.00 | 50 | 1020.6 |
| 20260510181710 | 20 | 257 | 11.3 | 12.9 | 0.00 | 0.00 | 0.00 | 51 | 1020.7 |
| 20260510181207 | 20 | 245 | 24.1 | 27.4 | 0.00 | 0.00 | 0.00 | 49 | 1020.8 |
| 20260510180703 | 20 | 223 | 16.1 | 17.7 | 0.00 | 0.00 | 0.00 | 52 | 1020.7 |
| 20260510180201 | 20 | 206 | 16.1 | 24.1 | 0.00 | 0.00 | 0.00 | 50 | 1021.1 |
| 20260510175656 | 20 | 229 | 14.5 | 14.5 | 0.00 | 0.00 | 0.00 | 52 | 1020.6 |
| 20260510175152 | 20 | 234 | 14.5 | 16.1 | 0.00 | 0.00 | 0.00 | 50 | 1020.5 |
| 20260510174650 | 20 | 221 | 12.9 | 14.5 | 0.00 | 0.00 | 0.00 | 55 | 1020.5 |
| 20260510174148 | 20 | 214 | 14.5 | 17.7 | 0.00 | 0.00 | 0.00 | 54 | 1020.8 |
| 20260510173643 | 20 | 237 | 11.3 | 12.9 | 0.00 | 0.00 | 0.00 | 58 | 1020.6 |
| 20260510173139 | 20 | 249 | 11.3 | 14.5 | 0.00 | 0.00 | 0.00 | 56 | 1020.7 |
| 20260510172635 | 20 | 212 | 11.3 | 12.9 | 0.00 | 0.00 | 0.00 | 56 | 1020.4 |
| 20260510172131 | 20 | 230 | 14.5 | 17.7 | 0.00 | 0.00 | 0.00 | 57 | 1020.7 |
| 20260510171628 | 19 | 223 | 20.9 | 25.7 | 0.00 | 0.00 | 0.00 | 57 | 1020.4 |
| 20260510171126 | 19 | 224 | 17.7 | 20.9 | 0.00 | 0.00 | 0.00 | 56 | 1020.4 |
| 20260510170622 | 19 | 202 | 17.7 | 20.9 | 0.00 | 0.00 | 0.00 | 58 | 1020.4 |
| 20260510170118 | 19 | 235 | 16.1 | 20.9 | 0.00 | 0.00 | 0.00 | 59 | 1020.4 |
| 20260510165614 | 19 | 216 | 14.5 | 22.5 | 0.00 | 0.00 | 0.00 | 60 | 1020.5 |
| 20260510165110 | 19 | 268 | 17.7 | 20.9 | 0.00 | 0.00 | 0.00 | 60 | 1020.5 |
| 20260510164608 | 18 | 236 | 20.9 | 25.7 | 0.00 | 0.00 | 0.00 | 59 | 1020.3 |
| 20260510164104 | 18 | 254 | 20.9 | 27.4 | 0.00 | 0.00 | 0.00 | 59 | 1020.4 |
| 20260510163559 | 18 | 223 | 14.5 | 14.5 | 0.00 | 0.00 | 0.00 | 60 | 1020.2 |
| 20260510163056 | 18 | 249 | 12.9 | 14.5 | 0.00 | 0.00 | 0.00 | 61 | 1020.3 |
| 20260510162551 | 18 | 222 | 12.9 | 14.5 | 0.00 | 0.00 | 0.00 | 62 | 1020.3 |
| 20260510162047 | 18 | 256 | 17.7 | 20.9 | 0.00 | 0.00 | 0.00 | 61 | 1020.4 |
| 20260510161538 | 18 | 227 | 14.5 | 14.5 | 0.00 | 0.00 | 0.00 | 61 | 1020.2 |
| 20260510161035 | 18 | 238 | 9.7 | 11.3 | 0.00 | 0.00 | 0.00 | 63 | 1020.2 |
| 20260510160532 | 18 | 246 | 17.7 | 20.9 | 0.00 | 0.00 | 0.00 | 61 | 1020.0 |
| 20260510160031 | 18 | 237 | 17.7 | 20.9 | 0.00 | 0.00 | 0.00 | 64 | 1020.1 |
| 20260510155528 | 18 | 232 | 12.9 | 12.9 | 0.00 | 0.00 | 0.00 | 65 | 1019.6 |
| 20260510155025 | 18 | 228 | 12.9 | 14.5 | 0.00 | 0.00 | 0.00 | 66 | 1019.7 |
| 20260510154520 | 18 | 211 | 16.1 | 17.7 | 0.00 | 0.00 | 0.00 | 66 | 1019.7 |
| 20260510154015 | 18 | 295 | 16.1 | 17.7 | 0.00 | 0.00 | 0.00 | 67 | 1019.6 |
| 20260510153510 | 17 | 235 | 16.1 | 17.7 | 0.00 | 0.00 | 0.00 | 67 | 1019.4 |
| 20260510153007 | 18 | 243 | 16.1 | 22.5 | 0.00 | 0.00 | 0.00 | 67 | 1019.5 |
| 20260510152504 | 17 | 217 | 12.9 | 12.9 | 0.00 | 0.00 | 0.00 | 69 | 1019.6 |
| 20260510152000 | 17 | 239 | 14.5 | 17.7 | 0.00 | 0.00 | 0.00 | 69 | 1019.9 |
| 20260510151458 | 17 | 233 | 17.7 | 20.9 | 0.00 | 0.00 | 0.00 | 69 | 1019.7 |
| 20260510150954 | 17 | 215 | 12.9 | 14.5 | 0.00 | 0.00 | 0.00 | 70 | 1019.6 |
| 20260510150450 | 17 | 221 | 19.3 | 20.9 | 0.00 | 0.00 | 0.00 | 69 | 1019.8 |
| 20260510145946 | 17 | 226 | 12.9 | 16.1 | 0.00 | 0.00 | 0.00 | 70 | 1019.8 |
| 20260510145442 | 17 | 245 | 11.3 | 12.9 | 0.00 | 0.00 | 0.00 | 70 | 1019.7 |
| 20260510144939 | 17 | 248 | 11.3 | 12.9 | 0.00 | 0.00 | 0.00 | 71 | 1019.6 |
| 20260510144436 | 17 | 223 | 12.9 | 14.5 | 0.00 | 0.00 | 0.00 | 71 | 1019.8 |
| 20260510143931 | 17 | 267 | 14.5 | 14.5 | 0.00 | 0.00 | 0.00 | 70 | 1019.7 |
| 20260510143427 | 17 | 234 | 14.5 | 16.1 | 0.00 | 0.00 | 0.00 | 70 | 1019.6 |
| 20260510142924 | 17 | 227 | 14.5 | 16.1 | 0.00 | 0.00 | 0.00 | 70 | 1019.9 |
| 20260510142421 | 17 | 237 | 12.9 | 16.1 | 0.00 | 0.00 | 0.00 | 70 | 1019.6 |
| 20260510141917 | 17 | 256 | 17.7 | 20.9 | 0.00 | 0.00 | 0.00 | 70 | 1019.6 |
| 20260510141415 | 17 | 243 | 16.1 | 16.1 | 0.00 | 0.00 | 0.00 | 71 | 1019.7 |
| 20260510140912 | 17 | 229 | 19.3 | 22.5 | 0.00 | 0.00 | 0.00 | 71 | 1019.5 |
| 20260510140408 | 17 | 227 | 14.5 | 16.1 | 0.00 | 0.00 | 0.00 | 70 | 1019.4 |
| 20260510135901 | 17 | 215 | 19.3 | 24.1 | 0.00 | 0.00 | 0.00 | 70 | 1019.3 |
| 20260510135357 | 17 | 240 | 12.9 | 14.5 | 0.00 | 0.00 | 0.00 | 71 | 1019.3 |
| 20260510134855 | 17 | 238 | 19.3 | 22.5 | 0.00 | 0.00 | 0.00 | 69 | 1019.0 |
| 20260510134351 | 17 | 231 | 19.3 | 20.9 | 0.00 | 0.00 | 0.00 | 70 | 1019.2 |
| 20260510133848 | 17 | 240 | 14.5 | 20.9 | 0.00 | 0.00 | 0.00 | 73 | 1018.9 |
| 20260510133344 | 17 | 231 | 12.9 | 14.5 | 0.00 | 0.00 | 0.00 | 72 | 1018.8 |
| 20260510132839 | 17 | 217 | 9.7 | 11.3 | 0.00 | 0.00 | 0.00 | 74 | 1018.7 |
| 20260510132338 | 17 | 219 | 9.7 | 11.3 | 0.00 | 0.00 | 0.00 | 74 | 1018.7 |
| 20260510131834 | 17 | 230 | 12.9 | 14.5 | 0.00 | 0.00 | 0.00 | 76 | 1018.6 |
| 20260510131332 | 16 | 216 | 11.3 | 12.9 | 0.00 | 0.00 | 0.00 | 77 | 1018.6 |
| 20260510130828 | 16 | 214 | 12.9 | 14.5 | 0.00 | 0.00 | 0.00 | 77 | 1018.6 |
| 20260510130325 | 16 | 269 | 11.3 | 14.5 | 0.00 | 0.00 | 0.00 | 78 | 1018.1 |
| 20260510125822 | 16 | 240 | 12.9 | 14.5 | 0.00 | 0.00 | 0.00 | 79 | 1018.2 |
| 20260510125318 | 16 | 233 | 14.5 | 17.7 | 0.00 | 0.00 | 0.00 | 79 | 1018.2 |
| 20260510124815 | 15 | 234 | 11.3 | 12.9 | 0.00 | 0.00 | 0.00 | 79 | 1018.1 |
| 20260510124312 | 15 | 246 | 8.0 | 12.9 | 0.00 | 0.00 | 0.00 | 80 | 1017.9 |
| 20260510123807 | 15 | 230 | 11.3 | 12.9 | 0.00 | 0.00 | 0.00 | 80 | 1017.9 |
| 20260510123303 | 15 | 228 | 14.5 | 16.1 | 0.00 | 0.00 | 0.00 | 80 | 1017.8 |
| 20260510122759 | 15 | 280 | 12.9 | 12.9 | 0.00 | 0.00 | 0.00 | 80 | 1017.7 |
| 20260510122256 | 15 | 215 | 17.7 | 17.7 | 0.00 | 0.00 | 0.00 | 79 | 1017.7 |
| 20260510121752 | 15 | 217 | 6.4 | 8.0 | 0.00 | 0.00 | 0.00 | 80 | 1017.6 |
| 20260510121250 | 14 | 209 | 8.0 | 9.7 | 0.00 | 0.00 | 0.00 | 81 | 1017.6 |
| 20260510120747 | 14 | 233 | 8.0 | 9.7 | 0.00 | 0.00 | 0.00 | 80 | 1017.7 |
| 20260510120244 | 14 | 226 | 9.7 | 11.3 | 0.00 | 0.00 | 0.00 | 80 | 1017.5 |
| 20260510115739 | 14 | 249 | 8.0 | 9.7 | 0.00 | 0.00 | 0.00 | 80 | 1017.6 |
| 20260510115238 | 14 | 245 | 12.9 | 14.5 | 0.00 | 0.00 | 0.00 | 79 | 1017.3 |
| 20260510114732 | 14 | 234 | 9.7 | 11.3 | 0.00 | 0.00 | 0.00 | 79 | 1017.1 |
| 20260510114230 | 13 | 241 | 8.0 | 9.7 | 0.00 | 0.00 | 0.00 | 77 | 1017.2 |
| 20260510113725 | 13 | 228 | 6.4 | 8.0 | 0.00 | 0.00 | 0.00 | 79 | 1017.3 |
| 20260510113223 | 14 | 216 | 6.4 | 8.0 | 0.00 | 0.00 | 0.00 | 78 | 1017.1 |
| 20260510112718 | 13 | 227 | 8.0 | 8.0 | 0.00 | 0.00 | 0.00 | 80 | 1017.2 |
| 20260510112216 | 13 | 244 | 6.4 | 8.0 | 0.00 | 0.00 | 0.00 | 78 | 1016.9 |
| 20260510111711 | 13 | 246 | 8.0 | 8.0 | 0.00 | 0.00 | 0.00 | 79 | 1016.8 |
| 20260510111209 | 12 | 208 | 8.0 | 9.7 | 0.00 | 0.00 | 0.00 | 82 | 1016.8 |
| 20260510110709 | 12 | 219 | 8.0 | 8.0 | 0.00 | 0.00 | 0.00 | 84 | 1017.0 |
| 20260510110207 | 12 | 227 | 0.0 | 0.0 | 0.00 | 0.00 | 0.00 | 82 | 1016.7 |
| 20260510105706 | 12 | 219 | 4.8 | 4.8 | 0.00 | 0.00 | 0.00 | 84 | 1016.6 |
| 20260510105201 | 12 | 225 | 0.0 | 0.0 | 0.00 | 0.00 | 0.00 | 86 | 1016.6 |
| 20260510104658 | 12 | 182 | 1.6 | 1.6 | 0.00 | 0.00 | 0.00 | 84 | 1016.7 |
| 20260510104155 | 12 | 175 | 0.0 | 0.0 | 0.00 | 0.00 | 0.00 | 84 | 1016.6 |
| 20260510103652 | 12 | 197 | 0.0 | 0.0 | 0.00 | 0.00 | 0.00 | 84 | 1016.6 |
| 20260510103148 | 12 | 206 | 0.0 | 0.0 | 0.00 | 0.00 | 0.00 | 85 | 1016.6 |
| 20260510102648 | 13 | 216 | 0.0 | 0.0 | 0.00 | 0.00 | 0.00 | 83 | 1016.3 |
| 20260510102145 | 14 | 227 | 0.0 | 0.0 | 0.00 | 0.00 | 0.00 | 79 | 1016.4 |
| 20260510101642 | 13 | 292 | 0.0 | 0.0 | 0.00 | 0.00 | 0.00 | 80 | 1016.4 |
| 20260510101141 | 13 | 339 | 0.0 | 0.0 | 0.00 | 0.00 | 0.00 | 78 | 1016.2 |
| 20260510100636 | 13 | 15 | 0.0 | 0.0 | 0.00 | 0.00 | 0.00 | 79 | 1016.2 |
| 20260510100134 | 13 | 172 | 0.0 | 0.0 | 0.00 | 0.00 | 0.00 | 79 | 1016.1 |
| 20260510095629 | 12 | 208 | 0.0 | 0.0 | 0.00 | 0.00 | 0.00 | 82 | 1015.9 |
| 20260510095125 | 12 | 213 | 0.0 | 0.0 | 0.00 | 0.00 | 0.00 | 85 | 1015.9 |
| 20260510094623 | 12 | 212 | 0.0 | 0.0 | 0.00 | 0.00 | 0.00 | 86 | 1015.8 |
| 20260510094119 | 12 | 229 | 4.8 | 4.8 | 0.00 | 0.00 | 0.00 | 86 | 1015.9 |
| 20260510093616 | 12 | 215 | 0.0 | 0.0 | 0.00 | 0.00 | 0.00 | 85 | 1015.9 |
| 20260510093113 | 13 | 213 | 0.0 | 0.0 | 0.00 | 0.00 | 0.00 | 83 | 1015.9 |
| 20260510092609 | 13 | 200 | 0.0 | 0.0 | 0.00 | 0.00 | 0.00 | 83 | 1015.9 |
| 20260510092109 | 13 | 197 | 0.0 | 0.0 | 0.00 | 0.00 | 0.00 | 81 | 1015.9 |
| 20260510091606 | 13 | 233 | 3.2 | 3.2 | 0.00 | 0.00 | 0.00 | 81 | 1015.7 |
| 20260510091102 | 18 | 223 | 3.2 | 3.2 | 0.00 | 0.00 | 0.00 | 69 | 1015.7 |
| 20260510090559 | 17 | 354 | 4.8 | 8.0 | 0.00 | 0.00 | 0.00 | 63 | 1015.6 |
| 20260510090055 | 15 | 16 | 0.0 | 0.0 | 0.00 | 0.00 | 0.00 | 67 | 1015.3 |
| 20260510085550 | 15 | 185 | 0.0 | 0.0 | 0.00 | 0.00 | 0.00 | 74 | 1015.6 |
| 20260510085046 | 15 | 197 | 0.0 | 0.0 | 0.00 | 0.00 | 0.00 | 73 | 1015.6 |
| 20260510084543 | 15 | 203 | 0.0 | 0.0 | 0.00 | 0.00 | 0.00 | 70 | 1015.4 |
| 20260510084040 | 15 | 200 | 1.6 | 1.6 | 0.00 | 0.00 | 0.00 | 71 | 1015.4 |
| 20260510083536 | 15 | 208 | 0.0 | 0.0 | 0.00 | 0.00 | 0.00 | 75 | 1015.2 |
| 20260510083032 | 15 | 333 | 4.8 | 4.8 | 0.00 | 0.00 | 0.00 | 69 | 1015.2 |
| 20260510082529 | 15 | 202 | 3.2 | 3.2 | 0.00 | 0.00 | 0.00 | 74 | 1015.2 |
| 20260510082025 | 15 | 204 | 0.0 | 0.0 | 0.00 | 0.00 | 0.00 | 77 | 1015.4 |
| 20260510081520 | 14 | 189 | 0.0 | 0.0 | 0.00 | 0.00 | 0.00 | 76 | 1015.4 |
| 20260510081016 | 13 | 182 | 0.0 | 0.0 | 0.00 | 0.00 | 0.00 | 81 | 1015.6 |
| 20260510080515 | 13 | 182 | 0.0 | 0.0 | 0.00 | 0.00 | 0.00 | 82 | 1015.5 |
| 20260510080012 | 13 | 176 | 0.0 | 0.0 | 0.00 | 0.00 | 0.00 | 81 | 1015.7 |
| 20260510075510 | 14 | 206 | 0.0 | 0.0 | 0.00 | 0.00 | 0.00 | 82 | 1015.6 |
| 20260510075006 | 14 | 210 | 0.0 | 0.0 | 0.00 | 0.00 | 0.00 | 78 | 1015.5 |
| 20260510074504 | 13 | 183 | 0.0 | 0.0 | 0.00 | 0.00 | 0.00 | 77 | 1015.8 |
| 20260510073959 | 13 | 224 | 0.0 | 0.0 | 0.00 | 0.00 | 0.00 | 80 | 1015.5 |
| 20260510073455 | 13 | 53 | 0.0 | 0.0 | 0.00 | 0.00 | 0.00 | 77 | 1015.5 |
| 20260510072952 | 13 | 190 | 0.0 | 0.0 | 0.00 | 0.00 | 0.00 | 78 | 1015.4 |
| 20260510072449 | 13 | 197 | 0.0 | 0.0 | 0.00 | 0.00 | 0.00 | 81 | 1015.6 |
| 20260510071944 | 13 | 182 | 0.0 | 0.0 | 0.00 | 0.00 | 0.00 | 81 | 1015.4 |
| 20260510071441 | 14 | 205 | 0.0 | 0.0 | 0.00 | 0.00 | 0.00 | 79 | 1015.5 |
| 20260510070939 | 15 | 187 | 0.0 | 0.0 | 0.00 | 0.00 | 0.00 | 74 | 1015.5 |
| 20260510070436 | 15 | 146 | 0.0 | 0.0 | 0.00 | 0.00 | 0.00 | 75 | 1015.4 |
| 20260510065932 | 14 | 294 | 0.0 | 0.0 | 0.00 | 0.00 | 0.00 | 75 | 1015.5 |
| 20260510065429 | 14 | 176 | 0.0 | 0.0 | 0.00 | 0.00 | 0.00 | 75 | 1015.5 |
| 20260510064924 | 13 | 212 | 0.0 | 0.0 | 0.00 | 0.00 | 0.00 | 78 | 1015.2 |
| 20260510064422 | 13 | 230 | 0.0 | 0.0 | 0.00 | 0.00 | 0.00 | 78 | 1015.3 |
| 20260510063919 | 12 | 225 | 4.8 | 4.8 | 0.00 | 0.00 | 0.00 | 85 | 1015.6 |
| 20260510063415 | 12 | 221 | 6.4 | 8.0 | 0.00 | 0.00 | 0.00 | 85 | 1015.4 |
| 20260510062913 | 13 | 225 | 0.0 | 0.0 | 0.00 | 0.00 | 0.00 | 81 | 1015.4 |
| 20260510062408 | 15 | 219 | 0.0 | 0.0 | 0.00 | 0.00 | 0.00 | 77 | 1015.1 |
| 20260510061904 | 17 | 164 | 0.0 | 0.0 | 0.00 | 0.00 | 0.00 | 63 | 1015.2 |
| 20260510061400 | 16 | 44 | 0.0 | 0.0 | 0.00 | 0.00 | 0.00 | 64 | 1015.2 |
| 20260510060856 | 15 | 150 | 0.0 | 0.0 | 0.00 | 0.00 | 0.00 | 69 | 1014.9 |
| 20260510060353 | 15 | 174 | 0.0 | 0.0 | 0.00 | 0.00 | 0.00 | 71 | 1014.8 |
| 20260510055849 | 16 | 176 | 0.0 | 0.0 | 0.00 | 0.00 | 0.00 | 72 | 1015.1 |
| 20260510055349 | 18 | 90 | 0.0 | 0.0 | 0.00 | 0.00 | 0.00 | 62 | 1015.0 |
| 20260510054843 | 17 | 79 | 0.0 | 0.0 | 0.00 | 0.00 | 0.00 | 60 | 1015.0 |
| 20260510054338 | 17 | 308 | 0.0 | 0.0 | 0.00 | 0.00 | 0.00 | 62 | 1015.1 |
| 20260510053833 | 15 | 237 | 0.0 | 0.0 | 0.00 | 0.00 | 0.00 | 71 | 1015.2 |
| 20260510053329 | 15 | 180 | 0.0 | 0.0 | 0.00 | 0.00 | 0.00 | 75 | 1015.2 |
| 20260510052826 | 17 | 177 | 0.0 | 0.0 | 0.00 | 0.00 | 0.00 | 71 | 1015.3 |
| 20260510052321 | 18 | 51 | 0.0 | 0.0 | 0.00 | 0.00 | 0.00 | 58 | 1014.9 |
| 20260510051817 | 17 | 18 | 0.0 | 0.0 | 0.00 | 0.00 | 0.00 | 59 | 1015.2 |
| 20260510051314 | 17 | 244 | 0.0 | 0.0 | 0.00 | 0.00 | 0.00 | 64 | 1015.1 |
| 20260510050812 | 16 | 268 | 0.0 | 0.0 | 0.00 | 0.00 | 0.00 | 69 | 1015.0 |
| 20260510050308 | 16 | 179 | 0.0 | 0.0 | 0.00 | 0.00 | 0.00 | 69 | 1014.9 |
| 20260510045805 | 15 | 219 | 0.0 | 0.0 | 0.00 | 0.03 | 0.03 | 73 | 1014.8 |
| 20260510045305 | 16 | 228 | 0.0 | 0.0 | 0.00 | 0.03 | 0.03 | 73 | 1015.0 |
| 20260510044800 | 20 | 230 | 0.0 | 0.0 | 0.00 | 0.03 | 0.03 | 65 | 1014.8 |
| 20260510044256 | 20 | 42 | 0.0 | 0.0 | 0.00 | 0.03 | 0.03 | 54 | 1015.0 |
| 20260510043752 | 20 | 18 | 0.0 | 0.0 | 0.00 | 0.03 | 0.03 | 55 | 1015.0 |
| 20260510043249 | 20 | 36 | 0.0 | 1.6 | 0.00 | 0.03 | 0.03 | 56 | 1015.1 |
| 20260510042746 | 20 | 29 | 0.0 | 0.0 | 0.00 | 0.03 | 0.03 | 56 | 1014.9 |
| 20260510042241 | 20 | 27 | 0.0 | 0.0 | 0.00 | 0.03 | 0.03 | 56 | 1014.9 |
| 20260510041738 | 19 | 32 | 0.0 | 0.0 | 0.00 | 0.03 | 0.03 | 57 | 1014.7 |
| 20260510041236 | 19 | 25 | 0.0 | 0.0 | 0.00 | 0.03 | 0.03 | 58 | 1014.6 |
| 20260510040733 | 20 | 6 | 0.0 | 0.0 | 0.00 | 0.03 | 0.03 | 57 | 1014.5 |
| 20260510040230 | 20 | 359 | 0.0 | 0.0 | 0.00 | 0.03 | 0.03 | 56 | 1014.6 |
| 20260510035725 | 20 | 343 | 0.0 | 0.0 | 0.00 | 0.03 | 0.03 | 57 | 1014.3 |
| 20260510035221 | 20 | 344 | 0.0 | 0.0 | 0.00 | 0.03 | 0.03 | 57 | 1014.5 |
| 20260510034717 | 20 | 347 | 0.0 | 0.0 | 0.00 | 0.03 | 0.03 | 57 | 1014.4 |
| 20260510034215 | 18 | 8 | 0.0 | 0.0 | 0.00 | 0.03 | 0.03 | 58 | 1014.5 |
| 20260510033711 | 18 | 303 | 0.0 | 0.0 | 0.00 | 0.03 | 0.03 | 61 | 1014.5 |
| 20260510033209 | 18 | 203 | 0.0 | 0.0 | 0.00 | 0.03 | 0.03 | 63 | 1014.5 |
| 20260510032705 | 17 | 214 | 0.0 | 0.0 | 0.00 | 0.03 | 0.03 | 65 | 1014.7 |
| 20260510032201 | 17 | 203 | 0.0 | 0.0 | 0.00 | 0.03 | 0.03 | 66 | 1014.4 |
| 20260510031655 | 17 | 197 | 0.0 | 0.0 | 0.00 | 0.03 | 0.03 | 66 | 1014.5 |
| 20260510031152 | 17 | 175 | 0.0 | 0.0 | 0.00 | 0.03 | 0.03 | 65 | 1014.4 |
| 20260510030646 | 18 | 177 | 0.0 | 0.0 | 0.00 | 0.03 | 0.03 | 64 | 1014.2 |
| 20260510030144 | 19 | 179 | 0.0 | 0.0 | 0.00 | 0.03 | 0.03 | 58 | 1014.4 |
| 20260510025641 | 19 | 189 | 0.0 | 0.0 | 0.00 | 0.03 | 0.03 | 58 | 1014.2 |
| 20260510025139 | 19 | 187 | 0.0 | 0.0 | 0.00 | 0.03 | 0.03 | 58 | 1013.9 |
| 20260510024635 | 19 | 200 | 0.0 | 0.0 | 0.00 | 0.03 | 0.03 | 58 | 1013.9 |
| 20260510024132 | 19 | 292 | 0.0 | 0.0 | 0.00 | 0.03 | 0.03 | 57 | 1013.7 |
| 20260510023628 | 19 | 187 | 0.0 | 0.0 | 0.00 | 0.03 | 0.03 | 57 | 1013.8 |
| 20260510023125 | 18 | 183 | 0.0 | 0.0 | 0.00 | 0.03 | 0.03 | 58 | 1013.8 |
| 20260510022625 | 18 | 192 | 0.0 | 0.0 | 0.00 | 0.03 | 0.03 | 59 | 1013.3 |
| 20260510022120 | 19 | 200 | 0.0 | 0.0 | 0.00 | 0.03 | 0.03 | 55 | 1013.6 |
| 20260510021616 | 20 | 186 | 0.0 | 0.0 | 0.00 | 0.03 | 0.03 | 55 | 1013.2 |
| 20260510021114 | 20 | 245 | 0.0 | 0.0 | 0.00 | 0.03 | 0.03 | 54 | 1012.9 |
| 20260510020614 | 20 | 197 | 0.0 | 0.0 | 0.00 | 0.03 | 0.03 | 54 | 1013.0 |
| 20260510020109 | 21 | 188 | 0.0 | 0.0 | 0.00 | 0.03 | 0.03 | 54 | 1012.8 |
| 20260510015606 | 21 | 275 | 0.0 | 0.0 | 0.00 | 0.03 | 0.03 | 50 | 1012.5 |
| 20260510015102 | 21 | 328 | 0.0 | 0.0 | 0.00 | 0.03 | 0.03 | 48 | 1012.7 |
| 20260510014558 | 21 | 303 | 0.0 | 0.0 | 0.00 | 0.03 | 0.03 | 48 | 1012.4 |
| 20260510014056 | 22 | 20 | 0.0 | 0.0 | 0.00 | 0.03 | 0.03 | 47 | 1012.5 |
| 20260510013550 | 22 | 20 | 0.0 | 0.0 | 0.00 | 0.03 | 0.03 | 46 | 1012.6 |
| 20260510013046 | 22 | 15 | 0.0 | 0.0 | 0.00 | 0.03 | 0.03 | 48 | 1012.4 |
| 20260510012545 | 22 | 66 | 0.0 | 0.0 | 0.00 | 0.03 | 0.03 | 48 | 1012.4 |
| 20260510012042 | 22 | 352 | 0.0 | 0.0 | 0.00 | 0.03 | 0.03 | 47 | 1012.2 |
| 20260510011542 | 22 | 28 | 0.0 | 0.0 | 0.00 | 0.03 | 0.03 | 47 | 1012.2 |
| 20260510011038 | 22 | 355 | 0.0 | 0.0 | 0.00 | 0.03 | 0.03 | 50 | 1012.4 |
| 20260510010535 | 22 | 321 | 0.0 | 0.0 | 0.00 | 0.03 | 0.03 | 49 | 1012.2 |
| 20260510010032 | 23 | 348 | 0.0 | 0.0 | 0.00 | 0.03 | 0.03 | 47 | 1012.2 |
| 20260510005527 | 23 | 22 | 0.0 | 0.0 | 0.00 | 0.03 | 0.03 | 45 | 1012.2 |
| 20260510005025 | 23 | 51 | 0.0 | 0.0 | 0.00 | 0.03 | 0.03 | 45 | 1012.1 |
| 20260510004522 | 24 | 106 | 0.0 | 0.0 | 0.00 | 0.03 | 0.03 | 45 | 1012.1 |
| 20260510004021 | 24 | 90 | 0.0 | 0.0 | 0.00 | 0.03 | 0.03 | 44 | 1012.0 |
| 20260510003517 | 24 | 100 | 0.0 | 0.0 | 0.00 | 0.03 | 0.03 | 45 | 1012.1 |
| 20260510003012 | 24 | 82 | 0.0 | 0.0 | 0.00 | 0.03 | 0.03 | 45 | 1012.1 |
| 20260510002508 | 24 | 94 | 0.0 | 0.0 | 0.00 | 0.03 | 0.03 | 46 | 1012.0 |
| 20260510002005 | 24 | 70 | 0.0 | 0.0 | 0.00 | 0.03 | 0.03 | 47 | 1011.9 |
| 20260510001503 | 25 | 76 | 0.0 | 0.0 | 0.00 | 0.03 | 0.03 | 45 | 1011.8 |
| 20260510001001 | 25 | 75 | 0.0 | 0.0 | 0.00 | 0.03 | 0.03 | 46 | 1011.9 |
| 20260510000456 | 25 | 85 | 0.0 | 0.0 | 0.00 | 0.03 | 0.03 | 45 | 1011.8 |
| 20260509235952 | 25 | 84 | 0.0 | 0.0 | 0.00 | 0.03 | 0.03 | 45 | 1011.7 |
| 20260509235449 | 25 | 88 | 0.0 | 0.0 | 0.00 | 0.03 | 0.03 | 47 | 1012.0 |
| 20260509234945 | 25 | 84 | 0.0 | 0.0 | 0.00 | 0.03 | 0.03 | 45 | 1011.9 |
| 20260509234442 | 25 | 60 | 0.0 | 1.6 | 0.00 | 0.03 | 0.03 | 45 | 1011.9 |
| 20260509233940 | 25 | 69 | 1.6 | 3.2 | 0.00 | 0.03 | 0.03 | 44 | 1012.1 |
| 20260509233438 | 26 | 75 | 0.0 | 1.6 | 0.00 | 0.03 | 0.03 | 45 | 1012.0 |
| 20260509232933 | 26 | 89 | 0.0 | 0.0 | 0.00 | 0.03 | 0.03 | 41 | 1011.9 |
| 20260509232432 | 26 | 65 | 0.0 | 1.6 | 0.00 | 0.03 | 0.03 | 41 | 1012.0 |
| 20260509231927 | 26 | 40 | 1.6 | 1.6 | 0.00 | 0.03 | 0.03 | 44 | 1012.0 |
| 20260509231424 | 26 | 62 | 3.2 | 4.8 | 0.00 | 0.03 | 0.03 | 42 | 1012.1 |
| 20260509230922 | 26 | 132 | 0.0 | 0.0 | 0.00 | 0.03 | 0.03 | 41 | 1012.1 |
| 20260509230419 | 26 | 65 | 0.0 | 0.0 | 0.00 | 0.03 | 0.03 | 41 | 1011.9 |
| 20260509225915 | 26 | 63 | 0.0 | 0.0 | 0.00 | 0.03 | 0.03 | 39 | 1012.0 |
| 20260509225411 | 26 | 63 | 1.6 | 1.6 | 0.00 | 0.03 | 0.03 | 37 | 1012.1 |
| 20260509224908 | 26 | 54 | 6.4 | 8.0 | 0.00 | 0.03 | 0.03 | 40 | 1011.7 |
| 20260509224403 | 26 | 72 | 1.6 | 4.8 | 0.00 | 0.03 | 0.03 | 36 | 1011.9 |
| 20260509223901 | 26 | 78 | 3.2 | 9.7 | 0.00 | 0.03 | 0.03 | 36 | 1011.9 |
| 20260509223357 | 26 | 43 | 6.4 | 9.7 | 0.00 | 0.03 | 0.03 | 36 | 1011.8 |
| 20260509222854 | 26 | 87 | 3.2 | 4.8 | 0.00 | 0.03 | 0.03 | 33 | 1011.9 |
| 20260509222349 | 26 | 63 | 0.0 | 1.6 | 0.00 | 0.03 | 0.03 | 38 | 1011.8 |
| 20260509221844 | 26 | 38 | 6.4 | 8.0 | 0.00 | 0.03 | 0.03 | 36 | 1012.0 |
| 20260509221342 | 27 | 17 | 8.0 | 11.3 | 0.00 | 0.03 | 0.03 | 36 | 1011.7 |
| 20260509220837 | 26 | 149 | 4.8 | 4.8 | 0.00 | 0.03 | 0.03 | 34 | 1011.8 |
| 20260509220333 | 27 | 59 | 4.8 | 4.8 | 0.00 | 0.03 | 0.03 | 41 | 1012.0 |
| 20260509215829 | 27 | 52 | 1.6 | 1.6 | 0.00 | 0.03 | 0.03 | 40 | 1011.7 |
| 20260509215326 | 27 | 0 | 3.2 | 3.2 | 0.00 | 0.03 | 0.03 | 33 | 1011.8 |
| 20260509214823 | 27 | 25 | 0.0 | 3.2 | 0.00 | 0.03 | 0.03 | 36 | 1011.8 |
| 20260509214320 | 26 | 78 | 0.0 | 1.6 | 0.00 | 0.03 | 0.03 | 39 | 1011.8 |
| 20260509213817 | 27 | 74 | 0.0 | 1.6 | 0.00 | 0.03 | 0.03 | 39 | 1012.1 |
| 20260509213312 | 26 | 54 | 3.2 | 9.7 | 0.00 | 0.03 | 0.03 | 38 | 1011.8 |
| 20260509212810 | 26 | 53 | 3.2 | 11.3 | 0.00 | 0.03 | 0.03 | 37 | 1011.9 |
| 20260509212308 | 26 | 72 | 3.2 | 4.8 | 0.00 | 0.03 | 0.03 | 34 | 1011.9 |
| 20260509211803 | 27 | 96 | 11.3 | 11.3 | 0.00 | 0.03 | 0.03 | 37 | 1011.7 |
| 20260509211259 | 27 | 219 | 4.8 | 4.8 | 0.00 | 0.03 | 0.03 | 33 | 1011.8 |
| 20260509210756 | 26 | 121 | 3.2 | 4.8 | 0.00 | 0.03 | 0.03 | 35 | 1012.0 |
| 20260509210254 | 27 | 168 | 8.0 | 9.7 | 0.00 | 0.03 | 0.03 | 36 | 1012.0 |
| 20260509205753 | 28 | 151 | 3.2 | 3.2 | 0.00 | 0.03 | 0.03 | 35 | 1012.1 |
| 20260509205248 | 27 | 166 | 0.0 | 0.0 | 0.00 | 0.03 | 0.03 | 33 | 1012.0 |
| 20260509204744 | 27 | 93 | 0.0 | 0.0 | 0.00 | 0.03 | 0.03 | 39 | 1012.0 |
| 20260509204241 | 26 | 117 | 3.2 | 4.8 | 0.00 | 0.03 | 0.03 | 36 | 1012.2 |
| 20260509203737 | 27 | 68 | 3.2 | 4.8 | 0.00 | 0.03 | 0.03 | 39 | 1012.5 |
| 20260509203235 | 26 | 75 | 1.6 | 4.8 | 0.00 | 0.03 | 0.03 | 37 | 1012.1 |
| 20260509202730 | 26 | 122 | 4.8 | 4.8 | 0.00 | 0.03 | 0.03 | 38 | 1012.3 |
| 20260509202227 | 26 | 176 | 3.2 | 3.2 | 0.00 | 0.03 | 0.03 | 34 | 1012.4 |
| 20260509201721 | 26 | 155 | 0.0 | 0.0 | 0.00 | 0.03 | 0.03 | 35 | 1012.5 |
| 20260509201218 | 26 | 56 | 1.6 | 4.8 | 0.00 | 0.03 | 0.03 | 39 | 1012.5 |
| 20260509200714 | 26 | 117 | 12.9 | 16.1 | 0.00 | 0.03 | 0.03 | 38 | 1012.4 |
| 20260509200209 | 26 | 78 | 8.0 | 12.9 | 0.00 | 0.03 | 0.03 | 41 | 1012.5 |
| 20260509195705 | 26 | 119 | 6.4 | 8.0 | 0.00 | 0.03 | 0.03 | 41 | 1012.7 |
| 20260509195201 | 26 | 132 | 8.0 | 9.7 | 0.00 | 0.03 | 0.03 | 38 | 1012.8 |
| 20260509194655 | 27 | 236 | 0.0 | 0.0 | 0.00 | 0.03 | 0.03 | 36 | 1012.6 |
| 20260509194152 | 26 | 73 | 4.8 | 8.0 | 0.00 | 0.03 | 0.03 | 40 | 1012.6 |
| 20260509193648 | 27 | 115 | 9.7 | 12.9 | 0.00 | 0.03 | 0.03 | 40 | 1012.6 |
| 20260509193143 | 27 | 74 | 0.0 | 1.6 | 0.00 | 0.03 | 0.03 | 36 | 1012.8 |